sensor_id;sensor_type;location;lat;lon;timestamp;P1;durP1;ratioP1;P2;durP2;ratioP2
75774;SDS011;64505;51.458;7.556;2023-11-19T00:00:14;1.23;;;0.63;;
75774;SDS011;64505;51.458;7.556;2023-11-19T00:02:16;0.98;;;0.65;;
75774;SDS011;64505;51.458;7.556;2023-11-19T00:04:18;0.82;;;0.70;;
75774;SDS011;64505;51.458;7.556;2023-11-19T00:06:19;4.13;;;1.00;;
75774;SDS011;64505;51.458;7.556;2023-11-19T00:08:21;1.02;;;0.70;;
75774;SDS011;64505;51.458;7.556;2023-11-19T00:10:22;0.80;;;0.60;;
75774;SDS011;64505;51.458;7.556;2023-11-19T00:12:24;0.80;;;0.65;;
75774;SDS011;64505;51.458;7.556;2023-11-19T00:14:26;1.17;;;0.65;;
75774;SDS011;64505;51.458;7.556;2023-11-19T00:16:27;2.15;;;0.60;;
75774;SDS011;64505;51.458;7.556;2023-11-19T00:18:29;0.70;;;0.52;;
75774;SDS011;64505;51.458;7.556;2023-11-19T00:20:31;1.27;;;0.63;;
75774;SDS011;64505;51.458;7.556;2023-11-19T00:22:33;1.73;;;0.60;;
75774;SDS011;64505;51.458;7.556;2023-11-19T00:24:34;1.08;;;0.65;;
75774;SDS011;64505;51.458;7.556;2023-11-19T00:26:36;1.90;;;0.77;;
75774;SDS011;64505;51.458;7.556;2023-11-19T00:28:37;0.82;;;0.68;;
75774;SDS011;64505;51.458;7.556;2023-11-19T00:30:40;1.17;;;0.60;;
75774;SDS011;64505;51.458;7.556;2023-11-19T00:32:44;1.92;;;0.80;;
75774;SDS011;64505;51.458;7.556;2023-11-19T00:34:46;1.70;;;0.68;;
75774;SDS011;64505;51.458;7.556;2023-11-19T00:36:49;1.23;;;0.68;;
75774;SDS011;64505;51.458;7.556;2023-11-19T00:38:51;1.63;;;0.60;;
75774;SDS011;64505;51.458;7.556;2023-11-19T00:40:53;0.95;;;0.60;;
75774;SDS011;64505;51.458;7.556;2023-11-19T00:42:55;1.58;;;1.10;;
75774;SDS011;64505;51.458;7.556;2023-11-19T00:44:59;1.58;;;0.93;;
75774;SDS011;64505;51.458;7.556;2023-11-19T00:47:00;2.08;;;0.90;;
75774;SDS011;64505;51.458;7.556;2023-11-19T00:49:02;1.73;;;1.02;;
75774;SDS011;64505;51.458;7.556;2023-11-19T00:51:04;3.63;;;0.90;;
75774;SDS011;64505;51.458;7.556;2023-11-19T00:53:05;4.47;;;1.27;;
75774;SDS011;64505;51.458;7.556;2023-11-19T00:55:09;2.55;;;1.02;;
75774;SDS011;64505;51.458;7.556;2023-11-19T00:57:11;2.63;;;1.27;;
75774;SDS011;64505;51.458;7.556;2023-11-19T00:59:12;2.40;;;1.10;;
75774;SDS011;64505;51.458;7.556;2023-11-19T01:01:15;2.30;;;1.40;;
75774;SDS011;64505;51.458;7.556;2023-11-19T01:03:16;2.80;;;1.50;;
75774;SDS011;64505;51.458;7.556;2023-11-19T01:05:18;2.22;;;1.42;;
75774;SDS011;64505;51.458;7.556;2023-11-19T01:07:23;2.35;;;1.30;;
75774;SDS011;64505;51.458;7.556;2023-11-19T01:09:25;2.67;;;1.70;;
75774;SDS011;64505;51.458;7.556;2023-11-19T01:11:27;2.78;;;1.33;;
75774;SDS011;64505;51.458;7.556;2023-11-19T01:13:29;2.55;;;1.50;;
75774;SDS011;64505;51.458;7.556;2023-11-19T01:15:33;4.25;;;1.70;;
75774;SDS011;64505;51.458;7.556;2023-11-19T01:17:36;3.00;;;1.42;;
75774;SDS011;64505;51.458;7.556;2023-11-19T01:19:38;1.90;;;1.48;;
75774;SDS011;64505;51.458;7.556;2023-11-19T01:21:40;4.22;;;1.80;;
75774;SDS011;64505;51.458;7.556;2023-11-19T01:23:42;3.50;;;1.65;;
75774;SDS011;64505;51.458;7.556;2023-11-19T01:25:44;2.78;;;1.40;;
75774;SDS011;64505;51.458;7.556;2023-11-19T01:27:46;2.42;;;1.50;;
75774;SDS011;64505;51.458;7.556;2023-11-19T01:29:47;5.38;;;2.00;;
75774;SDS011;64505;51.458;7.556;2023-11-19T01:31:49;4.35;;;1.85;;
75774;SDS011;64505;51.458;7.556;2023-11-19T01:33:52;4.05;;;2.15;;
75774;SDS011;64505;51.458;7.556;2023-11-19T01:35:54;3.80;;;2.03;;
75774;SDS011;64505;51.458;7.556;2023-11-19T01:37:55;3.38;;;2.03;;
75774;SDS011;64505;51.458;7.556;2023-11-19T01:39:56;4.47;;;1.90;;
75774;SDS011;64505;51.458;7.556;2023-11-19T01:41:59;3.30;;;2.30;;
75774;SDS011;64505;51.458;7.556;2023-11-19T01:44:01;4.72;;;2.00;;
75774;SDS011;64505;51.458;7.556;2023-11-19T01:46:04;3.70;;;1.90;;
75774;SDS011;64505;51.458;7.556;2023-11-19T01:48:06;4.47;;;2.05;;
75774;SDS011;64505;51.458;7.556;2023-11-19T01:50:08;3.33;;;2.00;;
75774;SDS011;64505;51.458;7.556;2023-11-19T01:52:10;2.67;;;1.85;;
75774;SDS011;64505;51.458;7.556;2023-11-19T01:54:12;3.65;;;1.92;;
75774;SDS011;64505;51.458;7.556;2023-11-19T01:56:14;2.50;;;1.92;;
75774;SDS011;64505;51.458;7.556;2023-11-19T01:58:17;2.70;;;1.63;;
75774;SDS011;64505;51.458;7.556;2023-11-19T02:00:19;2.70;;;1.70;;
75774;SDS011;64505;51.458;7.556;2023-11-19T02:02:20;3.50;;;1.73;;
75774;SDS011;64505;51.458;7.556;2023-11-19T02:04:24;2.55;;;1.38;;
75774;SDS011;64505;51.458;7.556;2023-11-19T02:06:27;2.03;;;1.63;;
75774;SDS011;64505;51.458;7.556;2023-11-19T02:08:29;3.42;;;1.95;;
75774;SDS011;64505;51.458;7.556;2023-11-19T02:10:31;4.53;;;1.75;;
75774;SDS011;64505;51.458;7.556;2023-11-19T02:12:33;3.13;;;1.80;;
75774;SDS011;64505;51.458;7.556;2023-11-19T02:14:35;3.88;;;1.67;;
75774;SDS011;64505;51.458;7.556;2023-11-19T02:16:36;4.93;;;1.88;;
75774;SDS011;64505;51.458;7.556;2023-11-19T02:18:38;3.25;;;1.52;;
75774;SDS011;64505;51.458;7.556;2023-11-19T02:20:40;2.08;;;1.30;;
75774;SDS011;64505;51.458;7.556;2023-11-19T02:22:42;2.30;;;1.67;;
75774;SDS011;64505;51.458;7.556;2023-11-19T02:24:44;3.63;;;1.40;;
75774;SDS011;64505;51.458;7.556;2023-11-19T02:29:01;2.53;;;1.60;;
75774;SDS011;64505;51.458;7.556;2023-11-19T02:31:08;2.90;;;2.00;;
75774;SDS011;64505;51.458;7.556;2023-11-19T02:33:13;4.18;;;1.60;;
75774;SDS011;64505;51.458;7.556;2023-11-19T02:35:14;3.95;;;1.80;;
75774;SDS011;64505;51.458;7.556;2023-11-19T02:37:16;3.05;;;1.30;;
75774;SDS011;64505;51.458;7.556;2023-11-19T02:39:23;3.10;;;1.55;;
75774;SDS011;64505;51.458;7.556;2023-11-19T02:41:25;3.88;;;1.48;;
75774;SDS011;64505;51.458;7.556;2023-11-19T02:43:26;2.92;;;1.50;;
75774;SDS011;64505;51.458;7.556;2023-11-19T02:45:28;3.05;;;1.55;;
75774;SDS011;64505;51.458;7.556;2023-11-19T02:47:32;5.35;;;1.58;;
75774;SDS011;64505;51.458;7.556;2023-11-19T02:49:37;5.00;;;1.63;;
75774;SDS011;64505;51.458;7.556;2023-11-19T02:51:38;4.00;;;1.88;;
75774;SDS011;64505;51.458;7.556;2023-11-19T02:53:40;9.57;;;1.85;;
75774;SDS011;64505;51.458;7.556;2023-11-19T02:55:41;6.38;;;1.65;;
75774;SDS011;64505;51.458;7.556;2023-11-19T02:57:49;8.00;;;1.58;;
75774;SDS011;64505;51.458;7.556;2023-11-19T02:59:53;5.68;;;1.20;;
75774;SDS011;64505;51.458;7.556;2023-11-19T03:01:57;5.03;;;1.40;;
75774;SDS011;64505;51.458;7.556;2023-11-19T03:04:01;5.95;;;1.55;;
75774;SDS011;64505;51.458;7.556;2023-11-19T03:06:04;5.13;;;1.42;;
75774;SDS011;64505;51.458;7.556;2023-11-19T03:08:06;7.47;;;1.30;;
75774;SDS011;64505;51.458;7.556;2023-11-19T03:10:08;11.20;;;1.60;;
75774;SDS011;64505;51.458;7.556;2023-11-19T03:12:10;6.97;;;1.08;;
75774;SDS011;64505;51.458;7.556;2023-11-19T03:14:12;5.22;;;1.02;;
75774;SDS011;64505;51.458;7.556;2023-11-19T03:16:13;7.45;;;1.38;;
75774;SDS011;64505;51.458;7.556;2023-11-19T03:18:15;5.97;;;1.40;;
75774;SDS011;64505;51.458;7.556;2023-11-19T03:20:17;7.32;;;1.60;;
75774;SDS011;64505;51.458;7.556;2023-11-19T03:22:18;7.03;;;1.15;;
75774;SDS011;64505;51.458;7.556;2023-11-19T03:24:20;6.13;;;1.30;;
75774;SDS011;64505;51.458;7.556;2023-11-19T03:26:22;5.75;;;1.70;;
75774;SDS011;64505;51.458;7.556;2023-11-19T03:28:23;4.40;;;1.50;;
75774;SDS011;64505;51.458;7.556;2023-11-19T03:30:25;8.10;;;1.35;;
75774;SDS011;64505;51.458;7.556;2023-11-19T03:32:35;11.32;;;1.42;;
75774;SDS011;64505;51.458;7.556;2023-11-19T03:34:36;7.78;;;1.73;;
75774;SDS011;64505;51.458;7.556;2023-11-19T03:36:38;11.82;;;1.85;;
75774;SDS011;64505;51.458;7.556;2023-11-19T03:38:41;11.98;;;1.73;;
75774;SDS011;64505;51.458;7.556;2023-11-19T03:40:43;15.55;;;1.83;;
75774;SDS011;64505;51.458;7.556;2023-11-19T03:42:45;8.95;;;1.70;;
75774;SDS011;64505;51.458;7.556;2023-11-19T03:44:47;9.70;;;1.60;;
75774;SDS011;64505;51.458;7.556;2023-11-19T03:46:50;5.60;;;1.35;;
75774;SDS011;64505;51.458;7.556;2023-11-19T03:48:52;14.90;;;1.63;;
75774;SDS011;64505;51.458;7.556;2023-11-19T03:50:53;6.45;;;1.90;;
75774;SDS011;64505;51.458;7.556;2023-11-19T03:52:55;10.27;;;1.65;;
75774;SDS011;64505;51.458;7.556;2023-11-19T03:54:57;7.82;;;1.48;;
75774;SDS011;64505;51.458;7.556;2023-11-19T03:56:58;8.43;;;1.63;;
75774;SDS011;64505;51.458;7.556;2023-11-19T03:59:02;8.23;;;1.65;;
75774;SDS011;64505;51.458;7.556;2023-11-19T04:01:11;8.73;;;1.67;;
75774;SDS011;64505;51.458;7.556;2023-11-19T04:03:16;10.98;;;1.58;;
75774;SDS011;64505;51.458;7.556;2023-11-19T04:05:17;10.25;;;1.52;;
75774;SDS011;64505;51.458;7.556;2023-11-19T04:07:20;7.55;;;1.98;;
75774;SDS011;64505;51.458;7.556;2023-11-19T04:09:22;7.68;;;1.63;;
75774;SDS011;64505;51.458;7.556;2023-11-19T04:11:23;16.42;;;2.45;;
75774;SDS011;64505;51.458;7.556;2023-11-19T04:13:25;7.53;;;1.88;;
75774;SDS011;64505;51.458;7.556;2023-11-19T04:15:26;9.13;;;1.90;;
75774;SDS011;64505;51.458;7.556;2023-11-19T04:17:28;11.45;;;2.20;;
75774;SDS011;64505;51.458;7.556;2023-11-19T04:19:29;8.45;;;1.95;;
75774;SDS011;64505;51.458;7.556;2023-11-19T04:21:34;8.40;;;2.47;;
75774;SDS011;64505;51.458;7.556;2023-11-19T04:23:38;10.98;;;2.45;;
75774;SDS011;64505;51.458;7.556;2023-11-19T04:25:39;8.18;;;1.80;;
75774;SDS011;64505;51.458;7.556;2023-11-19T04:27:41;10.32;;;1.73;;
75774;SDS011;64505;51.458;7.556;2023-11-19T04:29:42;10.60;;;1.80;;
75774;SDS011;64505;51.458;7.556;2023-11-19T04:31:44;10.00;;;1.90;;
75774;SDS011;64505;51.458;7.556;2023-11-19T04:33:46;7.95;;;1.50;;
75774;SDS011;64505;51.458;7.556;2023-11-19T04:35:48;10.23;;;1.58;;
75774;SDS011;64505;51.458;7.556;2023-11-19T04:37:49;14.82;;;1.95;;
75774;SDS011;64505;51.458;7.556;2023-11-19T04:39:51;11.15;;;1.92;;
75774;SDS011;64505;51.458;7.556;2023-11-19T04:41:52;8.95;;;2.03;;
75774;SDS011;64505;51.458;7.556;2023-11-19T04:43:54;10.38;;;1.75;;
75774;SDS011;64505;51.458;7.556;2023-11-19T04:45:56;13.23;;;2.95;;
75774;SDS011;64505;51.458;7.556;2023-11-19T04:47:58;13.13;;;1.60;;
75774;SDS011;64505;51.458;7.556;2023-11-19T04:50:00;9.27;;;1.73;;
75774;SDS011;64505;51.458;7.556;2023-11-19T04:52:01;9.20;;;1.85;;
75774;SDS011;64505;51.458;7.556;2023-11-19T04:54:04;9.90;;;1.65;;
75774;SDS011;64505;51.458;7.556;2023-11-19T04:56:09;13.75;;;1.90;;
75774;SDS011;64505;51.458;7.556;2023-11-19T04:58:14;10.35;;;2.00;;
75774;SDS011;64505;51.458;7.556;2023-11-19T05:00:15;13.52;;;2.15;;
75774;SDS011;64505;51.458;7.556;2023-11-19T05:02:18;10.85;;;1.75;;
75774;SDS011;64505;51.458;7.556;2023-11-19T05:04:19;13.07;;;2.28;;
75774;SDS011;64505;51.458;7.556;2023-11-19T05:06:21;14.77;;;2.35;;
75774;SDS011;64505;51.458;7.556;2023-11-19T05:08:22;16.25;;;2.50;;
75774;SDS011;64505;51.458;7.556;2023-11-19T05:10:24;11.45;;;2.20;;
75774;SDS011;64505;51.458;7.556;2023-11-19T05:12:26;22.48;;;2.42;;
75774;SDS011;64505;51.458;7.556;2023-11-19T05:14:27;13.60;;;2.47;;
75774;SDS011;64505;51.458;7.556;2023-11-19T05:16:29;16.13;;;2.22;;
75774;SDS011;64505;51.458;7.556;2023-11-19T05:18:30;15.13;;;2.30;;
75774;SDS011;64505;51.458;7.556;2023-11-19T05:20:32;17.02;;;2.10;;
75774;SDS011;64505;51.458;7.556;2023-11-19T05:22:33;15.00;;;2.50;;
75774;SDS011;64505;51.458;7.556;2023-11-19T05:24:35;13.60;;;2.25;;
75774;SDS011;64505;51.458;7.556;2023-11-19T05:26:37;15.85;;;2.15;;
75774;SDS011;64505;51.458;7.556;2023-11-19T05:28:39;15.90;;;1.90;;
75774;SDS011;64505;51.458;7.556;2023-11-19T05:30:41;15.70;;;2.47;;
75774;SDS011;64505;51.458;7.556;2023-11-19T05:32:42;19.08;;;2.42;;
75774;SDS011;64505;51.458;7.556;2023-11-19T05:34:44;13.68;;;2.45;;
75774;SDS011;64505;51.458;7.556;2023-11-19T05:36:48;13.20;;;2.50;;
75774;SDS011;64505;51.458;7.556;2023-11-19T05:38:51;15.50;;;2.08;;
75774;SDS011;64505;51.458;7.556;2023-11-19T05:40:52;18.00;;;2.05;;
75774;SDS011;64505;51.458;7.556;2023-11-19T05:42:53;18.02;;;2.33;;
75774;SDS011;64505;51.458;7.556;2023-11-19T05:44:55;13.98;;;3.10;;
75774;SDS011;64505;51.458;7.556;2023-11-19T05:46:57;14.93;;;2.20;;
75774;SDS011;64505;51.458;7.556;2023-11-19T05:48:58;16.08;;;2.60;;
75774;SDS011;64505;51.458;7.556;2023-11-19T05:51:00;14.63;;;2.35;;
75774;SDS011;64505;51.458;7.556;2023-11-19T05:53:01;14.93;;;2.42;;
75774;SDS011;64505;51.458;7.556;2023-11-19T05:55:03;15.25;;;2.22;;
75774;SDS011;64505;51.458;7.556;2023-11-19T05:57:06;19.10;;;2.55;;
75774;SDS011;64505;51.458;7.556;2023-11-19T05:59:10;11.70;;;2.42;;
75774;SDS011;64505;51.458;7.556;2023-11-19T06:01:16;16.23;;;2.65;;
75774;SDS011;64505;51.458;7.556;2023-11-19T06:03:18;12.65;;;2.03;;
75774;SDS011;64505;51.458;7.556;2023-11-19T06:05:20;13.27;;;2.33;;
75774;SDS011;64505;51.458;7.556;2023-11-19T06:07:21;17.60;;;2.55;;
75774;SDS011;64505;51.458;7.556;2023-11-19T06:09:23;12.85;;;2.13;;
75774;SDS011;64505;51.458;7.556;2023-11-19T06:11:26;17.40;;;2.70;;
75774;SDS011;64505;51.458;7.556;2023-11-19T06:13:28;18.77;;;2.67;;
75774;SDS011;64505;51.458;7.556;2023-11-19T06:15:33;16.80;;;2.45;;
75774;SDS011;64505;51.458;7.556;2023-11-19T06:17:34;14.20;;;2.20;;
75774;SDS011;64505;51.458;7.556;2023-11-19T06:19:36;19.95;;;2.40;;
75774;SDS011;64505;51.458;7.556;2023-11-19T06:21:39;16.42;;;2.53;;
75774;SDS011;64505;51.458;7.556;2023-11-19T06:23:40;13.35;;;2.33;;
75774;SDS011;64505;51.458;7.556;2023-11-19T06:25:42;15.52;;;2.53;;
75774;SDS011;64505;51.458;7.556;2023-11-19T06:27:44;17.20;;;2.17;;
75774;SDS011;64505;51.458;7.556;2023-11-19T06:29:45;20.67;;;2.75;;
75774;SDS011;64505;51.458;7.556;2023-11-19T06:31:47;15.23;;;2.47;;
75774;SDS011;64505;51.458;7.556;2023-11-19T06:33:51;14.02;;;2.85;;
75774;SDS011;64505;51.458;7.556;2023-11-19T06:35:52;17.33;;;2.50;;
75774;SDS011;64505;51.458;7.556;2023-11-19T06:37:55;21.38;;;3.33;;
75774;SDS011;64505;51.458;7.556;2023-11-19T06:39:57;19.67;;;3.08;;
75774;SDS011;64505;51.458;7.556;2023-11-19T06:41:58;17.27;;;2.80;;
75774;SDS011;64505;51.458;7.556;2023-11-19T06:44:01;16.00;;;2.67;;
75774;SDS011;64505;51.458;7.556;2023-11-19T06:46:04;21.27;;;2.70;;
75774;SDS011;64505;51.458;7.556;2023-11-19T06:48:07;17.63;;;2.67;;
75774;SDS011;64505;51.458;7.556;2023-11-19T06:50:08;21.40;;;2.60;;
75774;SDS011;64505;51.458;7.556;2023-11-19T06:52:10;17.52;;;2.70;;
75774;SDS011;64505;51.458;7.556;2023-11-19T06:54:12;17.25;;;3.25;;
75774;SDS011;64505;51.458;7.556;2023-11-19T06:56:23;14.82;;;2.33;;
75774;SDS011;64505;51.458;7.556;2023-11-19T06:58:25;18.35;;;2.40;;
75774;SDS011;64505;51.458;7.556;2023-11-19T07:00:26;15.80;;;2.70;;
75774;SDS011;64505;51.458;7.556;2023-11-19T07:02:28;22.92;;;2.92;;
75774;SDS011;64505;51.458;7.556;2023-11-19T07:04:30;12.77;;;2.33;;
75774;SDS011;64505;51.458;7.556;2023-11-19T07:06:31;14.40;;;2.58;;
75774;SDS011;64505;51.458;7.556;2023-11-19T07:08:35;15.20;;;2.95;;
75774;SDS011;64505;51.458;7.556;2023-11-19T07:10:37;12.48;;;2.33;;
75774;SDS011;64505;51.458;7.556;2023-11-19T07:12:39;14.30;;;2.60;;
75774;SDS011;64505;51.458;7.556;2023-11-19T07:14:41;17.30;;;2.35;;
75774;SDS011;64505;51.458;7.556;2023-11-19T07:16:43;15.30;;;2.30;;
75774;SDS011;64505;51.458;7.556;2023-11-19T07:18:45;16.25;;;2.55;;
75774;SDS011;64505;51.458;7.556;2023-11-19T07:23:12;15.07;;;2.33;;
75774;SDS011;64505;51.458;7.556;2023-11-19T07:25:16;20.55;;;3.08;;
75774;SDS011;64505;51.458;7.556;2023-11-19T07:27:17;13.32;;;1.92;;
75774;SDS011;64505;51.458;7.556;2023-11-19T07:29:19;16.75;;;2.40;;
75774;SDS011;64505;51.458;7.556;2023-11-19T07:31:23;18.02;;;2.22;;
75774;SDS011;64505;51.458;7.556;2023-11-19T07:33:25;15.43;;;2.25;;
75774;SDS011;64505;51.458;7.556;2023-11-19T07:35:26;19.40;;;2.50;;
75774;SDS011;64505;51.458;7.556;2023-11-19T07:37:28;14.27;;;2.28;;
75774;SDS011;64505;51.458;7.556;2023-11-19T07:39:29;14.32;;;2.22;;
75774;SDS011;64505;51.458;7.556;2023-11-19T07:41:31;13.40;;;2.70;;
75774;SDS011;64505;51.458;7.556;2023-11-19T07:43:33;13.68;;;2.45;;
75774;SDS011;64505;51.458;7.556;2023-11-19T07:45:34;13.10;;;2.50;;
75774;SDS011;64505;51.458;7.556;2023-11-19T07:47:36;17.83;;;3.20;;
75774;SDS011;64505;51.458;7.556;2023-11-19T07:49:37;15.52;;;2.40;;
75774;SDS011;64505;51.458;7.556;2023-11-19T07:51:39;19.48;;;2.35;;
75774;SDS011;64505;51.458;7.556;2023-11-19T07:53:41;18.80;;;2.53;;
75774;SDS011;64505;51.458;7.556;2023-11-19T07:55:43;17.95;;;2.17;;
75774;SDS011;64505;51.458;7.556;2023-11-19T07:57:45;14.00;;;2.30;;
75774;SDS011;64505;51.458;7.556;2023-11-19T07:59:46;19.10;;;2.35;;
75774;SDS011;64505;51.458;7.556;2023-11-19T08:01:48;22.95;;;2.53;;
75774;SDS011;64505;51.458;7.556;2023-11-19T08:03:49;17.33;;;2.17;;
75774;SDS011;64505;51.458;7.556;2023-11-19T08:05:57;25.83;;;2.72;;
75774;SDS011;64505;51.458;7.556;2023-11-19T08:07:58;15.02;;;2.08;;
75774;SDS011;64505;51.458;7.556;2023-11-19T08:10:00;14.85;;;1.60;;
75774;SDS011;64505;51.458;7.556;2023-11-19T08:12:02;14.38;;;3.13;;
75774;SDS011;64505;51.458;7.556;2023-11-19T08:14:04;12.77;;;2.90;;
75774;SDS011;64505;51.458;7.556;2023-11-19T08:16:06;18.63;;;2.92;;
75774;SDS011;64505;51.458;7.556;2023-11-19T08:18:08;16.88;;;2.72;;
75774;SDS011;64505;51.458;7.556;2023-11-19T08:20:10;18.27;;;2.83;;
75774;SDS011;64505;51.458;7.556;2023-11-19T08:22:12;16.70;;;2.08;;
75774;SDS011;64505;51.458;7.556;2023-11-19T08:24:13;17.98;;;2.83;;
75774;SDS011;64505;51.458;7.556;2023-11-19T08:26:15;21.23;;;2.92;;
75774;SDS011;64505;51.458;7.556;2023-11-19T08:28:21;17.25;;;2.20;;
75774;SDS011;64505;51.458;7.556;2023-11-19T08:30:22;15.85;;;2.45;;
75774;SDS011;64505;51.458;7.556;2023-11-19T08:32:25;16.08;;;2.75;;
75774;SDS011;64505;51.458;7.556;2023-11-19T08:34:27;22.20;;;2.42;;
75774;SDS011;64505;51.458;7.556;2023-11-19T08:36:28;17.23;;;2.95;;
75774;SDS011;64505;51.458;7.556;2023-11-19T08:38:30;15.95;;;2.10;;
75774;SDS011;64505;51.458;7.556;2023-11-19T08:40:32;18.25;;;2.60;;
75774;SDS011;64505;51.458;7.556;2023-11-19T08:42:34;18.38;;;2.17;;
75774;SDS011;64505;51.458;7.556;2023-11-19T08:44:35;21.50;;;2.90;;
75774;SDS011;64505;51.458;7.556;2023-11-19T08:46:37;18.13;;;2.42;;
75774;SDS011;64505;51.458;7.556;2023-11-19T08:48:38;20.10;;;2.22;;
75774;SDS011;64505;51.458;7.556;2023-11-19T08:50:40;27.20;;;2.83;;
75774;SDS011;64505;51.458;7.556;2023-11-19T08:52:41;16.92;;;2.67;;
75774;SDS011;64505;51.458;7.556;2023-11-19T08:58:05;16.05;;;2.30;;
75774;SDS011;64505;51.458;7.556;2023-11-19T09:00:07;13.98;;;2.45;;
75774;SDS011;64505;51.458;7.556;2023-11-19T09:02:09;20.13;;;3.50;;
75774;SDS011;64505;51.458;7.556;2023-11-19T09:04:11;11.52;;;1.90;;
75774;SDS011;64505;51.458;7.556;2023-11-19T09:06:12;16.08;;;2.33;;
75774;SDS011;64505;51.458;7.556;2023-11-19T09:08:14;22.02;;;2.83;;
75774;SDS011;64505;51.458;7.556;2023-11-19T09:10:15;17.40;;;2.83;;
75774;SDS011;64505;51.458;7.556;2023-11-19T09:12:17;23.98;;;2.85;;
75774;SDS011;64505;51.458;7.556;2023-11-19T09:14:18;19.02;;;3.00;;
75774;SDS011;64505;51.458;7.556;2023-11-19T09:16:23;18.48;;;2.95;;
75774;SDS011;64505;51.458;7.556;2023-11-19T09:18:25;18.58;;;2.40;;
75774;SDS011;64505;51.458;7.556;2023-11-19T09:20:26;21.20;;;2.72;;
75774;SDS011;64505;51.458;7.556;2023-11-19T09:22:28;19.35;;;2.88;;
75774;SDS011;64505;51.458;7.556;2023-11-19T09:24:29;18.48;;;3.90;;
75774;SDS011;64505;51.458;7.556;2023-11-19T09:26:31;19.67;;;2.72;;
75774;SDS011;64505;51.458;7.556;2023-11-19T09:28:32;19.40;;;2.70;;
75774;SDS011;64505;51.458;7.556;2023-11-19T09:30:34;18.00;;;3.10;;
75774;SDS011;64505;51.458;7.556;2023-11-19T09:32:35;22.63;;;3.22;;
75774;SDS011;64505;51.458;7.556;2023-11-19T09:34:38;16.38;;;2.10;;
75774;SDS011;64505;51.458;7.556;2023-11-19T09:36:40;19.00;;;3.00;;
75774;SDS011;64505;51.458;7.556;2023-11-19T09:38:45;17.35;;;3.13;;
75774;SDS011;64505;51.458;7.556;2023-11-19T09:40:46;15.63;;;2.08;;
75774;SDS011;64505;51.458;7.556;2023-11-19T09:42:48;17.98;;;2.35;;
75774;SDS011;64505;51.458;7.556;2023-11-19T09:44:50;15.27;;;2.13;;
75774;SDS011;64505;51.458;7.556;2023-11-19T09:46:52;16.67;;;2.50;;
75774;SDS011;64505;51.458;7.556;2023-11-19T09:48:54;20.05;;;2.83;;
75774;SDS011;64505;51.458;7.556;2023-11-19T09:50:58;23.60;;;2.88;;
75774;SDS011;64505;51.458;7.556;2023-11-19T09:53:01;13.63;;;2.20;;
75774;SDS011;64505;51.458;7.556;2023-11-19T09:55:04;17.25;;;2.78;;
75774;SDS011;64505;51.458;7.556;2023-11-19T09:57:05;15.48;;;2.33;;
75774;SDS011;64505;51.458;7.556;2023-11-19T09:59:09;21.05;;;2.85;;
75774;SDS011;64505;51.458;7.556;2023-11-19T10:01:13;16.75;;;2.30;;
75774;SDS011;64505;51.458;7.556;2023-11-19T10:03:18;16.85;;;3.45;;
75774;SDS011;64505;51.458;7.556;2023-11-19T10:05:23;16.40;;;2.42;;
75774;SDS011;64505;51.458;7.556;2023-11-19T10:07:25;20.15;;;2.50;;
75774;SDS011;64505;51.458;7.556;2023-11-19T10:09:27;17.80;;;2.60;;
75774;SDS011;64505;51.458;7.556;2023-11-19T10:11:29;20.33;;;2.90;;
75774;SDS011;64505;51.458;7.556;2023-11-19T10:13:31;18.42;;;2.40;;
75774;SDS011;64505;51.458;7.556;2023-11-19T10:15:35;16.15;;;2.72;;
75774;SDS011;64505;51.458;7.556;2023-11-19T10:17:38;18.70;;;2.95;;
75774;SDS011;64505;51.458;7.556;2023-11-19T10:19:40;14.43;;;2.63;;
75774;SDS011;64505;51.458;7.556;2023-11-19T10:21:42;19.45;;;2.72;;
75774;SDS011;64505;51.458;7.556;2023-11-19T10:23:48;16.40;;;2.13;;
75774;SDS011;64505;51.458;7.556;2023-11-19T10:25:52;15.73;;;2.33;;
75774;SDS011;64505;51.458;7.556;2023-11-19T10:27:55;18.00;;;3.53;;
75774;SDS011;64505;51.458;7.556;2023-11-19T10:30:00;17.00;;;2.28;;
75774;SDS011;64505;51.458;7.556;2023-11-19T10:32:02;19.58;;;2.70;;
75774;SDS011;64505;51.458;7.556;2023-11-19T10:34:26;19.27;;;2.22;;
75774;SDS011;64505;51.458;7.556;2023-11-19T10:36:38;18.00;;;2.20;;
75774;SDS011;64505;51.458;7.556;2023-11-19T10:38:56;18.35;;;2.83;;
75774;SDS011;64505;51.458;7.556;2023-11-19T10:40:58;14.90;;;2.63;;
75774;SDS011;64505;51.458;7.556;2023-11-19T10:43:03;23.90;;;3.30;;
75774;SDS011;64505;51.458;7.556;2023-11-19T10:45:05;18.98;;;2.95;;
75774;SDS011;64505;51.458;7.556;2023-11-19T10:47:23;12.63;;;2.63;;
75774;SDS011;64505;51.458;7.556;2023-11-19T10:49:27;17.15;;;2.47;;
75774;SDS011;64505;51.458;7.556;2023-11-19T10:51:29;18.40;;;2.58;;
75774;SDS011;64505;51.458;7.556;2023-11-19T10:53:30;19.83;;;3.35;;
75774;SDS011;64505;51.458;7.556;2023-11-19T10:55:37;18.13;;;2.55;;
75774;SDS011;64505;51.458;7.556;2023-11-19T10:57:43;16.88;;;2.85;;
75774;SDS011;64505;51.458;7.556;2023-11-19T10:59:49;22.23;;;2.90;;
75774;SDS011;64505;51.458;7.556;2023-11-19T11:01:53;20.85;;;2.58;;
75774;SDS011;64505;51.458;7.556;2023-11-19T11:03:57;16.33;;;2.53;;
75774;SDS011;64505;51.458;7.556;2023-11-19T11:06:01;25.60;;;2.92;;
75774;SDS011;64505;51.458;7.556;2023-11-19T11:08:29;19.42;;;2.90;;
75774;SDS011;64505;51.458;7.556;2023-11-19T11:10:31;16.15;;;2.70;;
75774;SDS011;64505;51.458;7.556;2023-11-19T11:12:37;19.50;;;2.78;;
75774;SDS011;64505;51.458;7.556;2023-11-19T11:14:43;13.27;;;2.33;;
75774;SDS011;64505;51.458;7.556;2023-11-19T11:16:46;18.10;;;2.38;;
75774;SDS011;64505;51.458;7.556;2023-11-19T11:18:49;17.38;;;2.67;;
75774;SDS011;64505;51.458;7.556;2023-11-19T11:20:54;17.13;;;2.60;;
75774;SDS011;64505;51.458;7.556;2023-11-19T11:25:48;19.55;;;2.28;;
75774;SDS011;64505;51.458;7.556;2023-11-19T11:28:16;20.83;;;2.42;;
75774;SDS011;64505;51.458;7.556;2023-11-19T11:30:46;18.20;;;2.35;;
75774;SDS011;64505;51.458;7.556;2023-11-19T11:33:26;17.35;;;2.83;;
75774;SDS011;64505;51.458;7.556;2023-11-19T11:38:00;18.08;;;2.22;;
75774;SDS011;64505;51.458;7.556;2023-11-19T11:40:05;14.20;;;2.40;;
75774;SDS011;64505;51.458;7.556;2023-11-19T11:44:30;13.40;;;2.65;;
75774;SDS011;64505;51.458;7.556;2023-11-19T11:46:58;15.95;;;2.25;;
75774;SDS011;64505;51.458;7.556;2023-11-19T11:49:01;22.63;;;2.83;;
75774;SDS011;64505;51.458;7.556;2023-11-19T11:51:06;14.02;;;2.40;;
75774;SDS011;64505;51.458;7.556;2023-11-19T11:53:15;17.88;;;2.58;;
75774;SDS011;64505;51.458;7.556;2023-11-19T11:55:17;21.02;;;2.30;;
75774;SDS011;64505;51.458;7.556;2023-11-19T11:57:19;17.88;;;2.22;;
75774;SDS011;64505;51.458;7.556;2023-11-19T11:59:23;19.17;;;2.22;;
75774;SDS011;64505;51.458;7.556;2023-11-19T12:01:25;17.92;;;3.05;;
75774;SDS011;64505;51.458;7.556;2023-11-19T12:03:29;15.45;;;2.30;;
75774;SDS011;64505;51.458;7.556;2023-11-19T12:05:31;16.13;;;2.25;;
75774;SDS011;64505;51.458;7.556;2023-11-19T12:07:35;18.75;;;2.35;;
75774;SDS011;64505;51.458;7.556;2023-11-19T12:09:40;19.35;;;2.13;;
75774;SDS011;64505;51.458;7.556;2023-11-19T12:11:46;17.70;;;2.38;;
75774;SDS011;64505;51.458;7.556;2023-11-19T12:18:10;12.45;;;2.33;;
75774;SDS011;64505;51.458;7.556;2023-11-19T12:20:11;17.02;;;2.08;;
75774;SDS011;64505;51.458;7.556;2023-11-19T12:22:13;19.52;;;2.33;;
75774;SDS011;64505;51.458;7.556;2023-11-19T12:24:15;15.43;;;2.70;;
75774;SDS011;64505;51.458;7.556;2023-11-19T12:26:21;14.98;;;2.33;;
75774;SDS011;64505;51.458;7.556;2023-11-19T12:28:32;19.08;;;2.17;;
75774;SDS011;64505;51.458;7.556;2023-11-19T12:30:35;16.92;;;2.53;;
75774;SDS011;64505;51.458;7.556;2023-11-19T12:32:44;17.92;;;2.20;;